createdAt,value
2023-07-04T00:00:59.670Z,16.25
2023-07-04T00:03:28.282Z,16.19
2023-07-04T00:05:57.507Z,16.16
2023-07-04T00:08:26.775Z,16.14
2023-07-04T00:10:58.021Z,16.12
2023-07-04T00:13:27.063Z,16.09
2023-07-04T00:15:56.291Z,16.11
2023-07-04T00:18:26.723Z,16.08
2023-07-04T00:20:59.888Z,16.07
2023-07-04T00:23:29.095Z,16.05
2023-07-04T00:25:57.526Z,16.01
2023-07-04T00:28:27.477Z,16.00
2023-07-04T00:30:56.395Z,15.96
2023-07-04T00:33:26.973Z,15.97
2023-07-04T00:36:04.868Z,15.92
2023-07-04T00:38:34.047Z,15.89
2023-07-04T00:41:02.403Z,15.86
2023-07-04T00:43:46.585Z,15.85
2023-07-04T00:46:16.573Z,15.83
2023-07-04T00:48:47.006Z,15.80
2023-07-04T00:51:23.558Z,15.74
2023-07-04T00:53:56.583Z,15.70
2023-07-04T00:56:27.648Z,15.71
2023-07-04T00:59:00.806Z,15.70
2023-07-04T01:01:29.042Z,15.68
2023-07-04T01:03:59.513Z,15.69
2023-07-04T01:06:36.677Z,15.72
2023-07-04T01:09:06.795Z,15.71
2023-07-04T01:11:44.000Z,15.72
2023-07-04T01:14:21.003Z,15.72
2023-07-04T01:16:49.094Z,15.70
2023-07-04T01:19:24.962Z,15.70
2023-07-04T01:22:02.401Z,15.68
2023-07-04T01:24:39.304Z,15.67
2023-07-04T01:27:08.839Z,15.63
2023-07-04T01:29:37.580Z,15.58
2023-07-04T01:32:06.230Z,15.57
2023-07-04T01:34:35.331Z,15.57
2023-07-04T01:37:03.947Z,15.58
2023-07-04T01:39:32.342Z,15.58
2023-07-04T01:42:01.901Z,15.60
2023-07-04T01:44:30.683Z,15.62
2023-07-04T01:46:58.226Z,15.62
2023-07-04T01:49:26.654Z,15.67
2023-07-04T01:51:55.247Z,15.68
2023-07-04T01:54:22.798Z,15.69
2023-07-04T01:56:54.032Z,15.72
2023-07-04T01:59:22.761Z,15.73
2023-07-04T02:01:51.772Z,15.74
2023-07-04T02:04:19.145Z,15.74
2023-07-04T02:06:46.409Z,15.74
2023-07-04T02:09:14.165Z,15.74
2023-07-04T02:11:41.604Z,15.74
2023-07-04T02:14:09.008Z,15.73
2023-07-04T02:16:36.435Z,15.74
2023-07-04T02:19:05.760Z,15.74
2023-07-04T02:21:33.193Z,15.74
2023-07-04T02:24:00.554Z,15.75
2023-07-04T02:26:28.096Z,15.75
2023-07-04T02:28:57.234Z,15.80
2023-07-04T02:31:25.423Z,15.83
2023-07-04T02:33:53.912Z,15.87
2023-07-04T02:36:23.248Z,15.92
2023-07-04T02:38:51.630Z,15.94
2023-07-04T02:41:20.331Z,15.99
2023-07-04T02:43:51.645Z,16.04
2023-07-04T02:46:19.833Z,16.10
2023-07-04T02:48:50.929Z,16.15
2023-07-04T02:51:20.039Z,16.20
2023-07-04T02:53:49.664Z,16.22
2023-07-04T02:56:18.054Z,16.24
2023-07-04T02:58:45.642Z,16.31
2023-07-04T03:01:13.463Z,16.33
2023-07-04T03:03:42.106Z,16.37
2023-07-04T03:06:10.626Z,16.41
2023-07-04T03:08:38.093Z,16.49
2023-07-04T03:11:07.732Z,16.57
2023-07-04T03:13:36.214Z,16.64
2023-07-04T03:16:05.353Z,16.72
2023-07-04T03:18:34.240Z,16.76
2023-07-04T03:21:02.327Z,16.87
2023-07-04T03:23:30.083Z,16.97
2023-07-04T03:25:58.182Z,17.05
2023-07-04T03:28:27.689Z,17.15
2023-07-04T03:30:56.004Z,17.23
2023-07-04T03:33:25.285Z,17.33
2023-07-04T03:35:59.140Z,17.42
2023-07-04T03:38:29.754Z,17.53
2023-07-04T03:41:00.197Z,17.63
2023-07-04T03:43:29.747Z,17.73
2023-07-04T03:45:57.067Z,17.80
2023-07-04T03:48:24.760Z,17.89
2023-07-04T03:50:52.918Z,17.96
2023-07-04T03:53:21.030Z,18.05
2023-07-04T03:55:49.673Z,18.16
2023-07-04T03:58:20.788Z,18.24
2023-07-04T04:00:52.442Z,18.35
2023-07-04T04:03:20.345Z,18.43
2023-07-04T04:05:48.056Z,18.51
2023-07-04T04:08:15.491Z,18.58
2023-07-04T04:10:43.035Z,18.63
2023-07-04T04:13:11.243Z,18.65
2023-07-04T04:15:38.797Z,18.71
2023-07-04T04:18:07.989Z,18.81
2023-07-04T04:20:35.523Z,18.88
2023-07-04T04:23:03.277Z,18.92
2023-07-04T04:25:39.641Z,19.03
2023-07-04T04:28:08.003Z,19.09
2023-07-04T04:30:35.770Z,19.17
2023-07-04T04:33:04.540Z,19.26
2023-07-04T04:35:33.413Z,19.33
2023-07-04T04:38:00.853Z,19.38
2023-07-04T04:40:30.151Z,19.44
2023-07-04T04:42:57.893Z,19.51
2023-07-04T04:45:25.432Z,19.58
2023-07-04T04:47:57.679Z,19.67
2023-07-04T04:50:28.507Z,19.82
2023-07-04T04:53:00.253Z,19.96
2023-07-04T04:55:28.711Z,20.03
2023-07-04T04:57:56.095Z,20.09
2023-07-04T05:00:24.085Z,20.15
2023-07-04T05:02:51.751Z,20.19
2023-07-04T05:05:19.653Z,20.21
2023-07-04T05:07:47.204Z,20.21
2023-07-04T05:10:17.077Z,20.22
2023-07-04T05:12:44.617Z,20.28
2023-07-04T05:15:12.044Z,20.34
2023-07-04T05:17:40.445Z,20.37
2023-07-04T05:20:10.366Z,20.41
2023-07-04T05:22:37.707Z,20.47
2023-07-04T05:25:06.770Z,20.58
2023-07-04T05:27:35.480Z,20.75
2023-07-04T05:30:02.974Z,20.84
2023-07-04T05:32:32.573Z,20.91
2023-07-04T05:35:00.989Z,20.97
2023-07-04T05:37:29.808Z,21.05
2023-07-04T05:39:58.351Z,21.16
2023-07-04T05:42:26.838Z,21.29
2023-07-04T05:44:55.813Z,21.36
2023-07-04T05:47:23.338Z,21.43
2023-07-04T05:49:51.434Z,21.54
2023-07-04T05:52:19.027Z,21.60
2023-07-04T05:54:49.046Z,21.67
2023-07-04T05:57:16.464Z,21.81
2023-07-04T05:59:43.755Z,21.86
2023-07-04T06:02:12.583Z,21.92
2023-07-04T06:04:40.127Z,22.00
2023-07-04T06:07:07.860Z,22.02
2023-07-04T06:09:35.478Z,22.08
2023-07-04T06:12:02.801Z,22.18
2023-07-04T06:14:30.426Z,22.27
2023-07-04T06:16:58.251Z,22.31
2023-07-04T06:19:27.217Z,22.46
2023-07-04T06:21:54.927Z,22.61
2023-07-04T06:24:22.406Z,22.74
2023-07-04T06:26:50.461Z,22.89
2023-07-04T06:29:18.118Z,23.02
2023-07-04T06:31:45.724Z,23.18
2023-07-04T06:34:14.005Z,23.41
2023-07-04T06:36:49.478Z,23.58
2023-07-04T06:39:17.198Z,23.85
2023-07-04T06:41:45.296Z,24.14
2023-07-04T06:44:12.886Z,24.52
2023-07-04T06:46:40.302Z,24.88
2023-07-04T06:49:07.852Z,25.16
2023-07-04T06:51:35.487Z,25.34
2023-07-04T06:54:04.601Z,25.52
2023-07-04T06:56:32.463Z,25.76
2023-07-04T06:59:00.362Z,26.07
2023-07-04T07:01:29.037Z,26.28
2023-07-04T07:03:58.518Z,26.01
2023-07-04T07:06:27.801Z,25.97
2023-07-04T07:08:55.242Z,25.98
2023-07-04T07:11:24.471Z,25.90
2023-07-04T07:13:52.528Z,25.96
2023-07-04T07:16:23.028Z,26.06
2023-07-04T07:18:52.143Z,26.26
2023-07-04T07:21:21.798Z,26.57
2023-07-04T07:23:53.204Z,26.90
2023-07-04T07:26:27.107Z,27.21
2023-07-04T07:28:55.494Z,27.38
2023-07-04T07:33:55.732Z,26.91
2023-07-04T07:36:25.001Z,26.43
2023-07-04T07:38:54.038Z,26.39
2023-07-04T07:41:26.058Z,26.33
2023-07-04T07:43:55.190Z,26.23
2023-07-04T07:46:22.576Z,26.22
2023-07-04T07:48:50.989Z,26.01
2023-07-04T07:51:19.530Z,25.62
2023-07-04T07:53:48.995Z,25.52
2023-07-04T07:56:18.492Z,25.38
2023-07-04T07:58:46.195Z,25.40
2023-07-04T08:01:17.139Z,25.41
2023-07-04T08:03:45.098Z,25.38
2023-07-04T08:06:23.278Z,25.33
2023-07-04T08:08:52.011Z,25.25
2023-07-04T08:11:19.786Z,25.29
2023-07-04T08:13:48.403Z,25.42
2023-07-04T08:16:20.897Z,25.58
2023-07-04T08:18:49.148Z,25.55
2023-07-04T08:21:17.116Z,25.57
2023-07-04T08:23:46.135Z,25.67
2023-07-04T08:26:18.775Z,25.62
2023-07-04T08:28:46.251Z,25.47
2023-07-04T08:31:15.193Z,25.22
2023-07-04T08:33:44.014Z,25.00
2023-07-04T08:36:12.002Z,24.90
2023-07-04T08:38:39.722Z,24.85
2023-07-04T08:41:21.000Z,24.78
2023-07-04T08:43:53.772Z,24.71
2023-07-04T08:46:22.264Z,24.97
2023-07-04T08:48:51.244Z,25.13
2023-07-04T08:51:23.663Z,25.12
2023-07-04T08:53:58.870Z,24.99
2023-07-04T08:56:32.926Z,24.84
2023-07-04T08:59:10.254Z,24.98
2023-07-04T09:01:46.941Z,25.33
2023-07-04T09:04:22.807Z,25.58
2023-07-04T09:06:57.618Z,25.62
2023-07-04T09:09:42.841Z,25.57
2023-07-04T09:12:10.929Z,25.78
2023-07-04T09:14:42.785Z,26.11
2023-07-04T09:17:20.760Z,26.33
2023-07-04T09:19:50.536Z,26.48
2023-07-04T09:22:18.960Z,26.54
2023-07-04T09:24:48.368Z,26.55
2023-07-04T09:27:17.024Z,26.54
2023-07-04T09:29:45.161Z,26.27
2023-07-04T09:32:13.530Z,26.05
2023-07-04T09:34:46.013Z,26.11
2023-07-04T09:37:17.173Z,26.13
2023-07-04T09:42:30.384Z,26.04
2023-07-04T09:45:13.000Z,26.04
2023-07-04T09:47:48.619Z,25.92
2023-07-04T09:50:24.629Z,25.84
2023-07-04T09:53:03.276Z,25.87
2023-07-04T09:55:32.295Z,25.87
2023-07-04T09:58:16.814Z,26.25
2023-07-04T10:00:45.931Z,26.71
2023-07-04T10:03:14.536Z,26.96
2023-07-04T10:05:42.368Z,27.14
2023-07-04T10:08:16.484Z,27.19
2023-07-04T10:10:52.272Z,26.98
2023-07-04T10:13:21.068Z,26.91
2023-07-04T10:15:50.063Z,26.84
2023-07-04T10:18:28.722Z,26.74
2023-07-04T10:20:58.487Z,26.57
2023-07-04T10:23:29.374Z,26.33
2023-07-04T10:26:20.686Z,26.13
2023-07-04T10:28:49.285Z,26.11
2023-07-04T10:31:22.990Z,26.10
2023-07-04T10:33:56.242Z,26.33
2023-07-04T10:36:28.914Z,26.37
2023-07-04T10:39:02.003Z,26.31
2023-07-04T10:41:37.678Z,26.42
2023-07-04T10:44:12.269Z,26.44
2023-07-04T10:46:45.404Z,26.41
2023-07-04T10:49:19.527Z,26.62
2023-07-04T10:51:50.915Z,26.84
2023-07-04T10:54:20.449Z,26.97
2023-07-04T10:56:53.179Z,26.88
2023-07-04T10:59:31.818Z,26.86
2023-07-04T11:02:06.805Z,26.88
2023-07-04T11:04:38.397Z,26.90
2023-07-04T11:07:08.626Z,26.92
2023-07-04T11:09:41.277Z,26.96
2023-07-04T11:12:16.623Z,26.85
2023-07-04T11:14:46.858Z,26.95
2023-07-04T11:17:19.939Z,27.00
2023-07-04T11:19:57.195Z,26.90
2023-07-04T11:22:48.127Z,26.96
2023-07-04T11:25:55.198Z,27.01
2023-07-04T11:28:42.621Z,27.32
2023-07-04T11:31:18.359Z,27.59
2023-07-04T11:34:05.149Z,27.62
2023-07-04T11:36:35.857Z,27.47
2023-07-04T11:39:05.791Z,27.30
2023-07-04T11:41:38.742Z,27.17
2023-07-04T11:44:14.504Z,27.09
2023-07-04T11:46:44.325Z,26.96
2023-07-04T11:49:20.718Z,26.97
2023-07-04T11:51:49.599Z,27.19
2023-07-04T11:54:17.244Z,27.50
2023-07-04T11:56:45.977Z,27.43
2023-07-04T11:59:28.515Z,27.06
2023-07-04T12:02:27.577Z,26.97
2023-07-04T12:04:56.386Z,27.06
2023-07-04T12:07:48.144Z,27.26
2023-07-04T12:10:18.983Z,27.47
2023-07-04T12:12:57.485Z,27.83
2023-07-04T12:15:27.202Z,28.15
2023-07-04T12:17:59.804Z,28.26
2023-07-04T12:20:30.223Z,28.22
2023-07-04T12:22:59.972Z,28.43
2023-07-04T12:25:29.275Z,28.55
2023-07-04T12:27:59.780Z,28.63
2023-07-04T12:30:38.671Z,28.62
2023-07-04T12:33:09.690Z,28.58
2023-07-04T12:35:39.292Z,28.72
2023-07-04T12:38:08.746Z,28.67
2023-07-04T12:40:36.298Z,28.43
2023-07-04T12:45:35.468Z,28.54
2023-07-04T12:50:39.809Z,28.70
2023-07-04T12:53:11.099Z,28.89
2023-07-04T12:55:43.262Z,29.22
2023-07-04T12:58:15.598Z,28.99
2023-07-04T13:00:46.478Z,28.48
2023-07-04T13:03:18.003Z,28.56
2023-07-04T13:05:47.828Z,28.50
2023-07-04T13:08:17.549Z,28.70
2023-07-04T13:10:49.603Z,28.97
2023-07-04T13:13:36.547Z,29.33
2023-07-04T13:16:16.214Z,29.67
2023-07-04T13:18:45.974Z,29.99
2023-07-04T13:21:47.113Z,30.41
2023-07-04T13:27:16.990Z,31.10
2023-07-04T13:30:22.655Z,31.36
2023-07-04T13:35:24.663Z,31.30
2023-07-04T13:40:23.335Z,31.13
2023-07-04T13:45:38.361Z,30.51
2023-07-04T13:48:06.913Z,30.60
2023-07-04T13:50:35.679Z,30.80
2023-07-04T13:53:14.405Z,30.97
2023-07-04T13:55:43.915Z,30.92
2023-07-04T13:58:11.724Z,30.77
2023-07-04T14:03:46.504Z,30.42
2023-07-04T14:06:00.586Z,29.78
2023-07-04T14:08:30.228Z,29.70
2023-07-04T14:11:02.226Z,29.65
2023-07-04T14:13:30.620Z,29.54
2023-07-04T14:19:57.081Z,29.66
2023-07-04T14:21:20.475Z,29.86
2023-07-04T14:23:47.884Z,29.79
2023-07-04T14:26:21.093Z,29.67
2023-07-04T14:28:50.885Z,29.72
2023-07-04T14:31:40.202Z,29.88
2023-07-04T14:34:07.809Z,29.91
2023-07-04T14:36:35.367Z,29.51
2023-07-04T14:39:02.806Z,29.16
2023-07-04T14:44:01.423Z,28.20
2023-07-04T14:46:30.677Z,28.34
2023-07-04T14:48:58.500Z,28.55
2023-07-04T14:51:25.910Z,28.85
2023-07-04T14:53:53.451Z,29.11
2023-07-04T14:56:21.018Z,29.10
2023-07-04T14:58:48.396Z,28.90
2023-07-04T15:01:21.311Z,28.75
2023-07-04T15:03:50.504Z,28.70
2023-07-04T15:06:17.997Z,28.86
2023-07-04T15:08:45.297Z,29.05
2023-07-04T15:11:12.795Z,29.31
2023-07-04T15:13:41.448Z,29.21
2023-07-04T15:16:09.200Z,28.85
2023-07-04T15:18:38.643Z,28.53
2023-07-04T15:21:10.033Z,28.24
2023-07-04T15:23:38.058Z,28.16
2023-07-04T15:28:41.697Z,28.07
2023-07-04T15:31:09.739Z,27.92
2023-07-04T15:33:37.422Z,27.87
2023-07-04T15:36:05.659Z,27.87
2023-07-04T15:38:34.822Z,28.02
2023-07-04T15:41:03.779Z,28.26
2023-07-04T15:43:34.753Z,28.45
2023-07-04T15:46:05.244Z,28.42
2023-07-04T15:48:32.677Z,28.22
2023-07-04T15:51:00.612Z,27.99
2023-07-04T15:53:29.458Z,27.81
2023-07-04T15:56:02.348Z,27.73
2023-07-04T15:58:31.068Z,27.77
2023-07-04T16:00:59.999Z,27.80
2023-07-04T16:03:29.363Z,27.72
2023-07-04T16:05:58.204Z,27.63
2023-07-04T16:08:27.183Z,27.38
2023-07-04T16:10:55.501Z,27.13
2023-07-04T16:13:24.842Z,26.85
2023-07-04T16:15:52.818Z,26.61
2023-07-04T16:18:21.901Z,26.31
2023-07-04T16:20:52.318Z,26.04
2023-07-04T16:23:20.256Z,25.88
2023-07-04T16:25:48.195Z,25.75
2023-07-04T16:28:16.127Z,25.63
2023-07-04T16:30:45.081Z,25.53
2023-07-04T16:33:13.518Z,25.47
2023-07-04T16:35:41.533Z,25.47
2023-07-04T16:38:09.720Z,25.40
2023-07-04T16:40:39.384Z,25.37
2023-07-04T16:43:07.267Z,25.33
2023-07-04T16:45:34.864Z,25.29
2023-07-04T16:48:06.815Z,25.26
2023-07-04T16:50:37.037Z,25.20
2023-07-04T16:53:06.684Z,25.18
2023-07-04T16:55:34.778Z,25.15
2023-07-04T16:58:02.439Z,25.11
2023-07-04T17:00:29.968Z,25.06
2023-07-04T17:02:57.831Z,25.04
2023-07-04T17:05:26.891Z,24.97
2023-07-04T17:07:54.921Z,24.91
2023-07-04T17:10:22.267Z,24.86
2023-07-04T17:12:50.011Z,24.84
2023-07-04T17:15:17.533Z,24.80
2023-07-04T17:17:45.305Z,24.79
2023-07-04T17:20:13.910Z,24.70
2023-07-04T17:22:42.713Z,24.61
2023-07-04T17:25:13.579Z,24.57
2023-07-04T17:27:41.454Z,24.61
2023-07-04T17:30:09.596Z,24.55
2023-07-04T17:32:37.474Z,24.52
2023-07-04T17:35:06.434Z,24.44
2023-07-04T17:37:34.490Z,24.37
2023-07-04T17:40:04.497Z,24.38
2023-07-04T17:42:33.386Z,24.34
2023-07-04T17:45:01.043Z,24.30
2023-07-04T17:47:32.755Z,24.25
2023-07-04T17:50:00.290Z,24.20
2023-07-04T17:52:28.053Z,24.15
2023-07-04T17:54:57.871Z,24.14
2023-07-04T17:57:28.556Z,24.12
2023-07-04T17:59:57.129Z,24.06
2023-07-04T18:02:25.688Z,23.99
2023-07-04T18:04:53.763Z,23.95
2023-07-04T18:07:21.653Z,23.90
2023-07-04T18:09:51.088Z,23.87
2023-07-04T18:12:20.288Z,23.84
2023-07-04T18:14:49.667Z,23.79
2023-07-04T18:17:18.025Z,23.73
2023-07-04T18:19:45.537Z,23.68
2023-07-04T18:22:13.495Z,23.65
2023-07-04T18:24:41.096Z,23.61
2023-07-04T18:27:08.548Z,23.55
2023-07-04T18:29:35.904Z,23.49
2023-07-04T18:32:05.769Z,23.45
2023-07-04T18:34:34.301Z,23.42
2023-07-04T18:37:01.944Z,23.38
2023-07-04T18:39:29.587Z,23.32
2023-07-04T18:41:57.135Z,23.21
2023-07-04T18:44:24.780Z,23.19
2023-07-04T18:46:54.795Z,23.15
2023-07-04T18:49:25.935Z,23.12
2023-07-04T18:51:54.169Z,23.05
2023-07-04T18:54:21.523Z,23.03
2023-07-04T18:56:49.363Z,22.99
2023-07-04T18:59:17.385Z,22.97
2023-07-04T19:01:45.334Z,22.93
2023-07-04T19:04:13.188Z,22.93
2023-07-04T19:06:42.154Z,22.93
2023-07-04T19:09:11.563Z,22.90
2023-07-04T19:11:40.670Z,22.84
2023-07-04T19:14:10.901Z,22.85
2023-07-04T19:16:41.379Z,22.81
2023-07-04T19:19:09.671Z,22.78
2023-07-04T19:21:37.454Z,22.73
2023-07-04T19:24:07.317Z,22.70
2023-07-04T19:26:37.807Z,22.66
2023-07-04T19:29:05.902Z,22.63
2023-07-04T19:31:33.329Z,22.62
2023-07-04T19:34:00.863Z,22.58
2023-07-04T19:36:28.224Z,22.57
2023-07-04T19:38:55.988Z,22.55
2023-07-04T19:41:24.942Z,22.52
2023-07-04T19:43:53.543Z,22.45
2023-07-04T19:46:21.153Z,22.40
2023-07-04T19:48:49.441Z,22.31
2023-07-04T19:51:18.507Z,22.31
2023-07-04T19:53:45.818Z,22.26
2023-07-04T19:56:15.300Z,22.16
2023-07-04T19:58:44.674Z,22.16
2023-07-04T20:01:15.576Z,22.12
2023-07-04T20:03:43.550Z,22.11
2023-07-04T20:06:13.684Z,22.05
2023-07-04T20:08:42.510Z,22.06
2023-07-04T20:11:11.147Z,22.02
2023-07-04T20:13:39.764Z,21.99
2023-07-04T20:16:11.716Z,21.94
2023-07-04T20:18:39.619Z,21.91
2023-07-04T20:21:07.518Z,21.88
2023-07-04T20:23:36.700Z,21.86
2023-07-04T20:26:05.228Z,21.81
2023-07-04T20:28:33.765Z,21.78
2023-07-04T20:31:02.929Z,21.76
2023-07-04T20:33:33.235Z,21.72
2023-07-04T20:36:01.759Z,21.69
2023-07-04T20:38:30.158Z,21.65
2023-07-04T20:41:02.665Z,21.63
2023-07-04T20:43:30.123Z,21.61
2023-07-04T20:45:58.149Z,21.58
2023-07-04T20:48:26.184Z,21.52
2023-07-04T20:50:56.291Z,21.47
2023-07-04T20:53:24.855Z,21.42
2023-07-04T20:55:53.754Z,21.40
2023-07-04T20:58:23.041Z,21.35
2023-07-04T21:00:53.048Z,21.39
2023-07-04T21:03:25.102Z,21.37
2023-07-04T21:05:54.880Z,21.31
2023-07-04T21:08:24.455Z,21.22
2023-07-04T21:11:12.237Z,21.17
2023-07-04T21:13:39.828Z,21.11
2023-07-04T21:16:10.493Z,21.02
2023-07-04T21:18:38.842Z,20.96
2023-07-04T21:21:08.475Z,20.88
2023-07-04T21:23:36.520Z,20.79
2023-07-04T21:26:08.568Z,20.73
2023-07-04T21:28:37.148Z,20.69
2023-07-04T21:31:05.716Z,20.67
2023-07-04T21:33:33.616Z,20.64
2023-07-04T21:36:02.573Z,20.61
2023-07-04T21:38:33.034Z,20.56
2023-07-04T21:41:02.351Z,20.52
2023-07-04T21:43:30.376Z,20.44
2023-07-04T21:45:58.613Z,20.39
2023-07-04T21:48:27.913Z,20.32
2023-07-04T21:50:56.418Z,20.28
2023-07-04T21:53:24.575Z,20.26
2023-07-04T21:55:54.698Z,20.25
2023-07-04T21:58:23.505Z,20.23
2023-07-04T22:00:51.271Z,20.22
2023-07-04T22:03:20.134Z,20.22
2023-07-04T22:05:48.422Z,20.21
2023-07-04T22:08:18.712Z,20.19
2023-07-04T22:10:56.964Z,20.17
2023-07-04T22:13:24.734Z,20.17
2023-07-04T22:15:52.193Z,20.13
2023-07-04T22:18:20.493Z,20.06
2023-07-04T22:20:48.070Z,20.04
2023-07-04T22:23:15.565Z,20.00
2023-07-04T22:25:43.019Z,19.97
2023-07-04T22:28:12.003Z,19.93
2023-07-04T22:30:39.472Z,19.86
2023-07-04T22:33:07.595Z,19.78
2023-07-04T22:35:36.880Z,19.72
2023-07-04T22:38:04.435Z,19.65
2023-07-04T22:40:32.021Z,19.60
2023-07-04T22:43:00.760Z,19.54
2023-07-04T22:45:29.876Z,19.47
2023-07-04T22:47:57.413Z,19.37
2023-07-04T22:50:24.864Z,19.30
2023-07-04T22:52:52.827Z,19.25
2023-07-04T22:55:20.251Z,19.25
2023-07-04T22:57:47.606Z,19.25
2023-07-04T23:00:15.976Z,19.23
2023-07-04T23:02:47.438Z,19.15
2023-07-04T23:05:15.222Z,18.97
2023-07-04T23:07:42.731Z,18.79
2023-07-04T23:10:10.647Z,18.60
2023-07-04T23:12:38.006Z,18.45
2023-07-04T23:15:06.168Z,18.38
2023-07-04T23:17:34.104Z,18.34
2023-07-04T23:20:02.982Z,18.36
2023-07-04T23:22:31.905Z,18.39
2023-07-04T23:24:59.604Z,18.43
2023-07-04T23:27:27.347Z,18.43
2023-07-04T23:29:54.789Z,18.44
2023-07-04T23:32:22.188Z,18.41
2023-07-04T23:34:49.570Z,18.37
2023-07-04T23:37:18.396Z,18.28
2023-07-04T23:39:46.272Z,18.16
2023-07-04T23:42:14.147Z,18.04
2023-07-04T23:44:41.848Z,17.95
2023-07-04T23:47:09.483Z,17.88
2023-07-04T23:49:37.173Z,17.81
2023-07-04T23:52:05.161Z,17.86
2023-07-04T23:54:34.047Z,17.87
2023-07-04T23:57:01.619Z,17.94
2023-07-04T23:59:29.285Z,18.01
